Amherst Junction, Wisconsin
Current Conditions -  °F | °C
As of 9:15 PM on Sunday 21 Dec 2014 (Local Time) from KSTE Reporting Station
Drizzle Drizzle  
Wind Chill: 24°   Ceiling: 700
Heat Index: 32°   Visibility: 4mi
Dew Point: 31°   Wind: 9mph
Humidity: 97%   Direction: 160°SSE
Pressure: 29.9"   Gusts: NA
Location:  44.47°N, 89.31°W
Report Text: KSTE 220315Z AUTO 16008KT 4SM -DZ OVC007 00/00 A2990 RMK AO2 T00011003
Loading
Personal Weather Stations






























Interactive Weather Map New forecast layout! Learn more

10-Day Weather Forecast

Advertisements
Track Severe Weather on mobile